Chipping Norton, United Kingdom
Current Conditions -  °F | °C
As of 10:50 AM on Sunday 23 Nov 2014 (Local Time) from EGTK Reporting Station
Moderate Rain Moderate Rain  
Wind Chill: 41°   Ceiling: Unl
Heat Index: 45°   Visibility: 6mi
Dew Point: 45°   Wind: 6mph
Humidity: 100%   Direction: 360°N
Pressure: 30.03"   Gusts: NA
Location:  51.94°N, 1.55°W
Report Text: EGTK 231050Z 36005KT 9000 RA SCT031 07/07 Q1017
Loading
Personal Weather Stations






























Interactive Weather Map New forecast layout! Learn more

10-Day Weather Forecast

Advertisements
Track Severe Weather on mobile